Brownsville, TX (78520)

5:22 AM CDT on September 01, 2015 (GMT -0500)
Neighborhood | | Change Station
CLOSE
Current Station
Personal Weather Station
Location: Brownsville, TX
Elevation: 26 ft
Nearby Weather Stations

Elev 26 ft 25.99 °N, 97.47 °W | Updated 1 minute ago

Mostly Cloudy
Mostly Cloudy
74.0 °F
Feels Like 74 °F
N
0.0
Wind Variable Wind from WSW
Gusts 1.0 mph

Today
High -- | Low -- °F
--% Chance of Precip.
Yesterday
High -- | Low -- °F
Precip. -- in
7:10 AM 7:49 PM
Waning Gibbous, 90% visible
Pressure 29.93 in
Visibility 10.0 miles
Clouds Mostly Cloudy 12000 ft
Heat Index 74 °F
Dew Point 68 °F
Humidity 82%
Rainfall 0.00 in
Snow Depth Not available.
UV 0 out of 12
Pollen 8.00 out of 12
Air Quality Not available.
Flu Activity Not available.
METAR KBRO 010953Z AUTO 29005KT 10SM BKN120 23/22 A2993 RMK AO2 SLP133 T02330217
Pressure 29.93 in
Visibility 10.0 miles
Clouds Mostly Cloudy 12000 ft
Heat Index 74 °F
Dew Point 68 °F
Humidity 82%
Rainfall 0.00 in
Snow Depth Not available.
UV 0 out of 12
Pollen 8.00 out of 12
Air Quality Not available.
Flu Activity Not available.
METAR KBRO 010953Z AUTO 29005KT 10SM BKN120 23/22 A2993 RMK AO2 SLP133 T02330217

10-Day Weather Forecast

×

Almanac

Astronomy

Sep. 01, 2015 Rise Set
Actual Time
Civil Twilight
Nautical Twilight
Astronomical Twilight
Moon
Length of Visible Light
Length of Day
Tomorrow will be .
, % of the Moon is Illuminated

Today's Extremes

State Highs State Lows

Community

WunderPhotos

Upload Photos

1,851,501 photos uploaded!

WunderBlogs® & News

Nearby

Air Quality

  Air Quality AQ Index Pollutant
Not available.

Snow Depth

Station Depth Elevation

Earthquake Activity

City Distance Mag. Time & Date
Minimum magnitude displayed is 2.5.

Coastal Water Temperatures

Place Temperature

Stations

Nearby Weather Stations

Station Location Temp. Windchill Dew Point Humidity Wind Precip. Elev Updated Type